sensor_id;sensor_type;location;lat;lon;timestamp;temperature;humidity
57829;DHT22;43657;52.698;6.314;2023-04-16T00:01:38;8.20;99.90
57829;DHT22;43657;52.698;6.314;2023-04-16T00:04:03;8.20;99.90
57829;DHT22;43657;52.698;6.314;2023-04-16T00:06:29;8.30;99.90
57829;DHT22;43657;52.698;6.314;2023-04-16T00:08:56;8.20;99.90
57829;DHT22;43657;52.698;6.314;2023-04-16T00:11:22;8.30;99.90
57829;DHT22;43657;52.698;6.314;2023-04-16T00:13:47;8.20;99.90
57829;DHT22;43657;52.698;6.314;2023-04-16T00:16:13;8.20;99.90
57829;DHT22;43657;52.698;6.314;2023-04-16T00:18:39;8.20;99.90
57829;DHT22;43657;52.698;6.314;2023-04-16T00:21:05;8.20;99.90
57829;DHT22;43657;52.698;6.314;2023-04-16T00:23:30;8.10;99.90
57829;DHT22;43657;52.698;6.314;2023-04-16T00:25:56;8.30;99.90
57829;DHT22;43657;52.698;6.314;2023-04-16T00:28:24;8.20;99.90
57829;DHT22;43657;52.698;6.314;2023-04-16T00:30:50;8.20;99.90
57829;DHT22;43657;52.698;6.314;2023-04-16T00:33:16;8.20;99.90
57829;DHT22;43657;52.698;6.314;2023-04-16T00:35:44;8.20;99.90
57829;DHT22;43657;52.698;6.314;2023-04-16T00:38:11;8.20;99.90
57829;DHT22;43657;52.698;6.314;2023-04-16T00:40:36;8.20;99.90
57829;DHT22;43657;52.698;6.314;2023-04-16T00:43:02;8.20;99.90
57829;DHT22;43657;52.698;6.314;2023-04-16T00:45:28;8.20;99.90
57829;DHT22;43657;52.698;6.314;2023-04-16T00:47:54;8.30;99.90
57829;DHT22;43657;52.698;6.314;2023-04-16T00:50:20;8.20;99.90
57829;DHT22;43657;52.698;6.314;2023-04-16T00:52:47;8.20;99.90
57829;DHT22;43657;52.698;6.314;2023-04-16T00:55:14;8.20;99.90
57829;DHT22;43657;52.698;6.314;2023-04-16T00:57:39;8.20;99.90
57829;DHT22;43657;52.698;6.314;2023-04-16T01:00:05;8.20;99.90
57829;DHT22;43657;52.698;6.314;2023-04-16T01:02:32;8.20;99.90
57829;DHT22;43657;52.698;6.314;2023-04-16T01:04:59;8.20;99.90
57829;DHT22;43657;52.698;6.314;2023-04-16T01:07:25;8.20;99.90
57829;DHT22;43657;52.698;6.314;2023-04-16T01:09:51;8.20;99.90
57829;DHT22;43657;52.698;6.314;2023-04-16T01:12:16;8.20;99.90
57829;DHT22;43657;52.698;6.314;2023-04-16T01:14:42;8.20;99.90
57829;DHT22;43657;52.698;6.314;2023-04-16T01:17:07;8.20;99.90
57829;DHT22;43657;52.698;6.314;2023-04-16T01:19:33;8.20;99.90
57829;DHT22;43657;52.698;6.314;2023-04-16T01:22:03;8.20;99.90
57829;DHT22;43657;52.698;6.314;2023-04-16T01:24:29;8.30;99.90
57829;DHT22;43657;52.698;6.314;2023-04-16T01:26:57;8.20;99.90
57829;DHT22;43657;52.698;6.314;2023-04-16T01:29:23;8.20;99.90
57829;DHT22;43657;52.698;6.314;2023-04-16T01:31:49;8.30;99.90
57829;DHT22;43657;52.698;6.314;2023-04-16T01:34:14;8.30;99.90
57829;DHT22;43657;52.698;6.314;2023-04-16T01:36:40;8.30;99.90
57829;DHT22;43657;52.698;6.314;2023-04-16T01:39:05;8.20;99.90
57829;DHT22;43657;52.698;6.314;2023-04-16T01:41:31;8.30;99.90
57829;DHT22;43657;52.698;6.314;2023-04-16T01:43:56;8.30;99.90
57829;DHT22;43657;52.698;6.314;2023-04-16T01:46:26;8.30;99.90
57829;DHT22;43657;52.698;6.314;2023-04-16T01:48:53;8.30;99.90
57829;DHT22;43657;52.698;6.314;2023-04-16T01:51:19;8.30;99.90
57829;DHT22;43657;52.698;6.314;2023-04-16T01:53:45;8.30;99.90
57829;DHT22;43657;52.698;6.314;2023-04-16T01:56:10;8.20;99.90
57829;DHT22;43657;52.698;6.314;2023-04-16T01:58:36;8.20;99.90
57829;DHT22;43657;52.698;6.314;2023-04-16T02:01:03;8.20;99.90
57829;DHT22;43657;52.698;6.314;2023-04-16T02:03:30;8.20;99.90
57829;DHT22;43657;52.698;6.314;2023-04-16T02:05:56;8.20;99.90
57829;DHT22;43657;52.698;6.314;2023-04-16T02:08:22;8.20;99.90
57829;DHT22;43657;52.698;6.314;2023-04-16T02:10:49;8.30;99.90
57829;DHT22;43657;52.698;6.314;2023-04-16T02:13:15;8.20;99.90
57829;DHT22;43657;52.698;6.314;2023-04-16T02:15:48;8.30;99.90
57829;DHT22;43657;52.698;6.314;2023-04-16T02:18:14;8.30;99.90
57829;DHT22;43657;52.698;6.314;2023-04-16T02:20:45;8.30;99.90
57829;DHT22;43657;52.698;6.314;2023-04-16T02:23:12;8.30;99.90
57829;DHT22;43657;52.698;6.314;2023-04-16T02:25:46;8.30;99.90
57829;DHT22;43657;52.698;6.314;2023-04-16T02:28:15;8.30;99.90
57829;DHT22;43657;52.698;6.314;2023-04-16T02:30:41;8.30;99.90
57829;DHT22;43657;52.698;6.314;2023-04-16T02:33:08;8.30;99.90
57829;DHT22;43657;52.698;6.314;2023-04-16T02:35:35;8.30;99.90
57829;DHT22;43657;52.698;6.314;2023-04-16T02:38:01;8.30;99.90
57829;DHT22;43657;52.698;6.314;2023-04-16T02:40:28;8.30;99.90
57829;DHT22;43657;52.698;6.314;2023-04-16T02:42:54;8.30;99.90
57829;DHT22;43657;52.698;6.314;2023-04-16T02:45:20;8.30;99.90
57829;DHT22;43657;52.698;6.314;2023-04-16T02:47:47;8.30;99.90
57829;DHT22;43657;52.698;6.314;2023-04-16T02:50:13;8.30;99.90
57829;DHT22;43657;52.698;6.314;2023-04-16T02:52:38;8.20;99.90
57829;DHT22;43657;52.698;6.314;2023-04-16T02:55:05;8.30;99.90
57829;DHT22;43657;52.698;6.314;2023-04-16T02:57:30;8.20;99.90
57829;DHT22;43657;52.698;6.314;2023-04-16T02:59:56;8.20;99.90
57829;DHT22;43657;52.698;6.314;2023-04-16T03:02:21;8.20;99.90
57829;DHT22;43657;52.698;6.314;2023-04-16T03:04:47;8.20;99.90
57829;DHT22;43657;52.698;6.314;2023-04-16T03:07:13;8.30;99.90
57829;DHT22;43657;52.698;6.314;2023-04-16T03:09:39;8.20;99.90
57829;DHT22;43657;52.698;6.314;2023-04-16T03:12:05;8.20;99.90
57829;DHT22;43657;52.698;6.314;2023-04-16T03:14:30;8.20;99.90
57829;DHT22;43657;52.698;6.314;2023-04-16T03:16:57;8.20;99.90
57829;DHT22;43657;52.698;6.314;2023-04-16T03:19:23;8.20;99.90
57829;DHT22;43657;52.698;6.314;2023-04-16T03:21:48;8.10;99.90
57829;DHT22;43657;52.698;6.314;2023-04-16T03:24:14;8.20;99.90
57829;DHT22;43657;52.698;6.314;2023-04-16T03:26:39;8.20;99.90
57829;DHT22;43657;52.698;6.314;2023-04-16T03:29:05;8.20;99.90
57829;DHT22;43657;52.698;6.314;2023-04-16T03:31:31;8.10;99.90
57829;DHT22;43657;52.698;6.314;2023-04-16T03:33:56;8.20;99.90
57829;DHT22;43657;52.698;6.314;2023-04-16T03:36:22;8.10;99.90
57829;DHT22;43657;52.698;6.314;2023-04-16T03:38:48;8.20;99.90
57829;DHT22;43657;52.698;6.314;2023-04-16T03:41:13;8.10;99.90
57829;DHT22;43657;52.698;6.314;2023-04-16T03:43:39;8.20;99.90
57829;DHT22;43657;52.698;6.314;2023-04-16T03:46:05;8.10;99.90
57829;DHT22;43657;52.698;6.314;2023-04-16T03:48:30;8.10;99.90
57829;DHT22;43657;52.698;6.314;2023-04-16T03:50:56;8.10;99.90
57829;DHT22;43657;52.698;6.314;2023-04-16T03:53:21;8.10;99.90
57829;DHT22;43657;52.698;6.314;2023-04-16T03:55:50;8.10;99.90
57829;DHT22;43657;52.698;6.314;2023-04-16T03:58:17;8.10;99.90
57829;DHT22;43657;52.698;6.314;2023-04-16T04:00:42;8.10;99.90
57829;DHT22;43657;52.698;6.314;2023-04-16T04:03:08;8.10;99.90
57829;DHT22;43657;52.698;6.314;2023-04-16T04:05:41;8.10;99.90
57829;DHT22;43657;52.698;6.314;2023-04-16T04:08:07;8.10;99.90
57829;DHT22;43657;52.698;6.314;2023-04-16T04:10:33;8.10;99.90
57829;DHT22;43657;52.698;6.314;2023-04-16T04:13:01;8.10;99.90
57829;DHT22;43657;52.698;6.314;2023-04-16T04:15:27;8.00;99.90
57829;DHT22;43657;52.698;6.314;2023-04-16T04:17:52;8.10;99.90
57829;DHT22;43657;52.698;6.314;2023-04-16T04:20:19;8.00;99.90
57829;DHT22;43657;52.698;6.314;2023-04-16T04:22:44;8.10;99.90
57829;DHT22;43657;52.698;6.314;2023-04-16T04:25:10;8.10;99.90
57829;DHT22;43657;52.698;6.314;2023-04-16T04:27:36;8.10;99.90
57829;DHT22;43657;52.698;6.314;2023-04-16T04:30:02;8.10;99.90
57829;DHT22;43657;52.698;6.314;2023-04-16T04:32:29;8.10;99.90
57829;DHT22;43657;52.698;6.314;2023-04-16T04:34:55;8.10;99.90
57829;DHT22;43657;52.698;6.314;2023-04-16T04:37:21;8.10;99.90
57829;DHT22;43657;52.698;6.314;2023-04-16T04:39:46;8.20;99.90
57829;DHT22;43657;52.698;6.314;2023-04-16T04:42:12;8.10;99.90
57829;DHT22;43657;52.698;6.314;2023-04-16T04:44:37;8.10;99.90
57829;DHT22;43657;52.698;6.314;2023-04-16T04:47:03;8.10;99.90
57829;DHT22;43657;52.698;6.314;2023-04-16T04:49:28;8.10;99.90
57829;DHT22;43657;52.698;6.314;2023-04-16T04:51:55;8.10;99.90
57829;DHT22;43657;52.698;6.314;2023-04-16T04:54:20;8.10;99.90
57829;DHT22;43657;52.698;6.314;2023-04-16T04:56:46;8.10;99.90
57829;DHT22;43657;52.698;6.314;2023-04-16T04:59:12;8.10;99.90
57829;DHT22;43657;52.698;6.314;2023-04-16T05:01:37;8.20;99.90
57829;DHT22;43657;52.698;6.314;2023-04-16T05:04:03;8.20;99.90
57829;DHT22;43657;52.698;6.314;2023-04-16T05:06:29;8.20;99.90
57829;DHT22;43657;52.698;6.314;2023-04-16T05:08:54;8.20;99.90
57829;DHT22;43657;52.698;6.314;2023-04-16T05:11:20;8.10;99.90
57829;DHT22;43657;52.698;6.314;2023-04-16T05:13:45;8.20;99.90
57829;DHT22;43657;52.698;6.314;2023-04-16T05:16:11;8.10;99.90
57829;DHT22;43657;52.698;6.314;2023-04-16T05:18:37;8.10;99.90
57829;DHT22;43657;52.698;6.314;2023-04-16T05:21:02;8.10;99.90
57829;DHT22;43657;52.698;6.314;2023-04-16T05:23:28;8.10;99.90
57829;DHT22;43657;52.698;6.314;2023-04-16T05:25:53;8.20;99.90
57829;DHT22;43657;52.698;6.314;2023-04-16T05:28:19;8.10;99.90
57829;DHT22;43657;52.698;6.314;2023-04-16T05:30:45;8.10;99.90
57829;DHT22;43657;52.698;6.314;2023-04-16T05:33:10;8.10;99.90
57829;DHT22;43657;52.698;6.314;2023-04-16T05:35:36;8.10;99.90
57829;DHT22;43657;52.698;6.314;2023-04-16T05:38:01;8.10;99.90
57829;DHT22;43657;52.698;6.314;2023-04-16T05:40:28;8.20;99.90
57829;DHT22;43657;52.698;6.314;2023-04-16T05:42:54;8.20;99.90
57829;DHT22;43657;52.698;6.314;2023-04-16T05:45:19;8.10;99.90
57829;DHT22;43657;52.698;6.314;2023-04-16T05:47:45;8.10;99.90
57829;DHT22;43657;52.698;6.314;2023-04-16T05:50:10;8.10;99.90
57829;DHT22;43657;52.698;6.314;2023-04-16T05:52:36;8.10;99.90
57829;DHT22;43657;52.698;6.314;2023-04-16T05:55:02;8.10;99.90
57829;DHT22;43657;52.698;6.314;2023-04-16T05:57:28;8.10;99.90
57829;DHT22;43657;52.698;6.314;2023-04-16T05:59:54;8.20;99.90
57829;DHT22;43657;52.698;6.314;2023-04-16T06:02:20;8.20;99.90
57829;DHT22;43657;52.698;6.314;2023-04-16T06:04:45;8.20;99.90
57829;DHT22;43657;52.698;6.314;2023-04-16T06:07:11;8.30;99.90
57829;DHT22;43657;52.698;6.314;2023-04-16T06:09:36;8.30;99.90
57829;DHT22;43657;52.698;6.314;2023-04-16T06:12:02;8.30;99.90
57829;DHT22;43657;52.698;6.314;2023-04-16T06:14:27;8.40;99.90
57829;DHT22;43657;52.698;6.314;2023-04-16T06:16:53;8.40;99.90
57829;DHT22;43657;52.698;6.314;2023-04-16T06:19:18;8.50;99.90
57829;DHT22;43657;52.698;6.314;2023-04-16T06:21:44;8.50;99.90
57829;DHT22;43657;52.698;6.314;2023-04-16T06:24:09;8.60;99.90
57829;DHT22;43657;52.698;6.314;2023-04-16T06:26:36;8.70;99.90
57829;DHT22;43657;52.698;6.314;2023-04-16T06:29:02;8.70;99.90
57829;DHT22;43657;52.698;6.314;2023-04-16T06:31:28;8.80;99.90
57829;DHT22;43657;52.698;6.314;2023-04-16T06:33:54;8.80;99.90
57829;DHT22;43657;52.698;6.314;2023-04-16T06:36:20;8.90;99.90
57829;DHT22;43657;52.698;6.314;2023-04-16T06:38:46;9.00;99.90
57829;DHT22;43657;52.698;6.314;2023-04-16T06:41:13;9.10;99.90
57829;DHT22;43657;52.698;6.314;2023-04-16T06:43:38;9.30;99.90
57829;DHT22;43657;52.698;6.314;2023-04-16T06:46:04;9.50;99.90
57829;DHT22;43657;52.698;6.314;2023-04-16T06:48:30;9.50;99.90
57829;DHT22;43657;52.698;6.314;2023-04-16T06:50:55;9.70;99.90
57829;DHT22;43657;52.698;6.314;2023-04-16T06:53:22;9.70;99.90
57829;DHT22;43657;52.698;6.314;2023-04-16T06:55:48;9.70;99.90
57829;DHT22;43657;52.698;6.314;2023-04-16T06:58:13;9.70;99.90
57829;DHT22;43657;52.698;6.314;2023-04-16T07:00:39;9.60;99.90
57829;DHT22;43657;52.698;6.314;2023-04-16T07:03:04;9.70;99.90
57829;DHT22;43657;52.698;6.314;2023-04-16T07:05:30;9.70;99.90
57829;DHT22;43657;52.698;6.314;2023-04-16T07:07:56;9.70;99.90
57829;DHT22;43657;52.698;6.314;2023-04-16T07:10:22;9.80;99.90
57829;DHT22;43657;52.698;6.314;2023-04-16T07:12:48;9.90;99.90
57829;DHT22;43657;52.698;6.314;2023-04-16T07:15:13;9.90;99.90
57829;DHT22;43657;52.698;6.314;2023-04-16T07:17:39;9.90;99.90
57829;DHT22;43657;52.698;6.314;2023-04-16T07:20:05;9.80;99.90
57829;DHT22;43657;52.698;6.314;2023-04-16T07:22:31;9.80;99.90
57829;DHT22;43657;52.698;6.314;2023-04-16T07:24:57;9.80;99.90
57829;DHT22;43657;52.698;6.314;2023-04-16T07:27:22;9.90;99.90
57829;DHT22;43657;52.698;6.314;2023-04-16T07:29:48;10.00;99.90
57829;DHT22;43657;52.698;6.314;2023-04-16T07:32:14;10.10;99.90
57829;DHT22;43657;52.698;6.314;2023-04-16T07:34:40;10.10;99.90
57829;DHT22;43657;52.698;6.314;2023-04-16T07:37:06;10.20;99.90
57829;DHT22;43657;52.698;6.314;2023-04-16T07:39:31;10.10;99.90
57829;DHT22;43657;52.698;6.314;2023-04-16T07:41:57;10.10;99.90
57829;DHT22;43657;52.698;6.314;2023-04-16T07:44:22;10.00;99.90
57829;DHT22;43657;52.698;6.314;2023-04-16T07:46:48;10.00;99.90
57829;DHT22;43657;52.698;6.314;2023-04-16T07:49:14;10.10;99.90
57829;DHT22;43657;52.698;6.314;2023-04-16T07:51:39;10.20;99.90
57829;DHT22;43657;52.698;6.314;2023-04-16T07:54:05;10.30;99.90
57829;DHT22;43657;52.698;6.314;2023-04-16T07:56:31;10.50;99.90
57829;DHT22;43657;52.698;6.314;2023-04-16T07:58:56;10.70;99.90
57829;DHT22;43657;52.698;6.314;2023-04-16T08:01:22;10.80;99.90
57829;DHT22;43657;52.698;6.314;2023-04-16T08:03:47;10.90;99.90
57829;DHT22;43657;52.698;6.314;2023-04-16T08:06:13;11.00;99.90
57829;DHT22;43657;52.698;6.314;2023-04-16T08:08:39;11.20;99.90
57829;DHT22;43657;52.698;6.314;2023-04-16T08:11:04;11.20;99.90
57829;DHT22;43657;52.698;6.314;2023-04-16T08:13:30;11.20;99.90
57829;DHT22;43657;52.698;6.314;2023-04-16T08:15:56;11.20;99.90
57829;DHT22;43657;52.698;6.314;2023-04-16T08:18:21;11.20;99.90
57829;DHT22;43657;52.698;6.314;2023-04-16T08:20:47;11.30;99.90
57829;DHT22;43657;52.698;6.314;2023-04-16T08:23:12;11.60;99.90
57829;DHT22;43657;52.698;6.314;2023-04-16T08:25:38;11.90;99.90
57829;DHT22;43657;52.698;6.314;2023-04-16T08:28:04;12.00;99.90
57829;DHT22;43657;52.698;6.314;2023-04-16T08:30:29;12.10;99.90
57829;DHT22;43657;52.698;6.314;2023-04-16T08:32:55;12.30;99.90
57829;DHT22;43657;52.698;6.314;2023-04-16T08:35:21;12.50;99.90
57829;DHT22;43657;52.698;6.314;2023-04-16T08:37:47;12.60;99.90
57829;DHT22;43657;52.698;6.314;2023-04-16T08:40:16;12.70;99.90
57829;DHT22;43657;52.698;6.314;2023-04-16T08:42:48;13.00;99.90
57829;DHT22;43657;52.698;6.314;2023-04-16T08:45:16;13.80;99.90
57829;DHT22;43657;52.698;6.314;2023-04-16T08:47:47;14.70;99.90
57829;DHT22;43657;52.698;6.314;2023-04-16T08:50:14;15.20;99.90
57829;DHT22;43657;52.698;6.314;2023-04-16T08:53:05;15.00;99.90
57829;DHT22;43657;52.698;6.314;2023-04-16T08:55:48;14.50;99.90
57829;DHT22;43657;52.698;6.314;2023-04-16T08:58:16;14.30;99.90
57829;DHT22;43657;52.698;6.314;2023-04-16T09:00:43;14.70;99.90
57829;DHT22;43657;52.698;6.314;2023-04-16T09:03:10;15.00;99.90
57829;DHT22;43657;52.698;6.314;2023-04-16T09:05:36;15.40;99.90
57829;DHT22;43657;52.698;6.314;2023-04-16T09:08:06;15.70;99.90
57829;DHT22;43657;52.698;6.314;2023-04-16T09:10:32;16.00;99.90
57829;DHT22;43657;52.698;6.314;2023-04-16T09:12:58;16.60;99.90
57829;DHT22;43657;52.698;6.314;2023-04-16T09:15:24;17.30;99.90
57829;DHT22;43657;52.698;6.314;2023-04-16T09:17:53;17.50;99.90
57829;DHT22;43657;52.698;6.314;2023-04-16T09:20:19;17.30;99.90
57829;DHT22;43657;52.698;6.314;2023-04-16T09:22:44;16.90;99.90
57829;DHT22;43657;52.698;6.314;2023-04-16T09:25:11;16.90;99.90
57829;DHT22;43657;52.698;6.314;2023-04-16T09:27:37;17.10;99.90
57829;DHT22;43657;52.698;6.314;2023-04-16T09:30:26;17.00;99.90
57829;DHT22;43657;52.698;6.314;2023-04-16T09:35:47;16.10;99.90
57829;DHT22;43657;52.698;6.314;2023-04-16T09:38:13;16.20;99.90
57829;DHT22;43657;52.698;6.314;2023-04-16T09:40:38;16.40;99.90
57829;DHT22;43657;52.698;6.314;2023-04-16T09:43:14;16.70;99.90
57829;DHT22;43657;52.698;6.314;2023-04-16T09:45:51;17.00;99.90
57829;DHT22;43657;52.698;6.314;2023-04-16T09:48:30;17.30;99.90
57829;DHT22;43657;52.698;6.314;2023-04-16T09:50:58;17.50;99.90
57829;DHT22;43657;52.698;6.314;2023-04-16T09:53:28;17.30;99.90
57829;DHT22;43657;52.698;6.314;2023-04-16T09:55:58;17.20;99.90
57829;DHT22;43657;52.698;6.314;2023-04-16T09:58:24;17.10;99.90
57829;DHT22;43657;52.698;6.314;2023-04-16T10:01:00;16.90;99.90
57829;DHT22;43657;52.698;6.314;2023-04-16T10:03:33;16.80;99.90
57829;DHT22;43657;52.698;6.314;2023-04-16T10:06:06;16.70;99.90
57829;DHT22;43657;52.698;6.314;2023-04-16T10:08:31;16.60;99.90
57829;DHT22;43657;52.698;6.314;2023-04-16T10:10:57;16.60;99.90
57829;DHT22;43657;52.698;6.314;2023-04-16T10:13:24;16.50;99.90
57829;DHT22;43657;52.698;6.314;2023-04-16T10:15:54;16.50;99.90
57829;DHT22;43657;52.698;6.314;2023-04-16T10:18:21;16.50;99.90
57829;DHT22;43657;52.698;6.314;2023-04-16T10:20:48;16.90;99.90
57829;DHT22;43657;52.698;6.314;2023-04-16T10:23:14;17.40;99.90
57829;DHT22;43657;52.698;6.314;2023-04-16T10:25:41;18.00;99.90
57829;DHT22;43657;52.698;6.314;2023-04-16T10:28:08;18.50;99.90
57829;DHT22;43657;52.698;6.314;2023-04-16T10:30:35;18.90;99.90
57829;DHT22;43657;52.698;6.314;2023-04-16T10:33:03;19.20;99.90
57829;DHT22;43657;52.698;6.314;2023-04-16T10:35:29;19.40;99.90
57829;DHT22;43657;52.698;6.314;2023-04-16T10:37:56;19.70;99.90
57829;DHT22;43657;52.698;6.314;2023-04-16T10:40:25;20.10;99.90
57829;DHT22;43657;52.698;6.314;2023-04-16T10:42:57;20.00;99.90
57829;DHT22;43657;52.698;6.314;2023-04-16T10:45:30;19.60;82.60
57829;DHT22;43657;52.698;6.314;2023-04-16T10:47:57;18.90;88.10
57829;DHT22;43657;52.698;6.314;2023-04-16T10:50:23;18.50;99.90
57829;DHT22;43657;52.698;6.314;2023-04-16T10:52:48;18.30;99.90
57829;DHT22;43657;52.698;6.314;2023-04-16T10:55:37;18.00;99.90
57829;DHT22;43657;52.698;6.314;2023-04-16T10:58:26;17.90;99.90
57829;DHT22;43657;52.698;6.314;2023-04-16T11:00:53;17.70;99.90
57829;DHT22;43657;52.698;6.314;2023-04-16T11:03:18;17.60;99.90
57829;DHT22;43657;52.698;6.314;2023-04-16T11:05:45;17.40;99.90
57829;DHT22;43657;52.698;6.314;2023-04-16T11:08:14;17.10;99.90
57829;DHT22;43657;52.698;6.314;2023-04-16T11:10:40;16.80;99.90
57829;DHT22;43657;52.698;6.314;2023-04-16T11:13:06;16.60;99.90
57829;DHT22;43657;52.698;6.314;2023-04-16T11:15:33;16.50;99.90
57829;DHT22;43657;52.698;6.314;2023-04-16T11:17:59;16.20;99.90
57829;DHT22;43657;52.698;6.314;2023-04-16T11:20:26;16.20;99.90
57829;DHT22;43657;52.698;6.314;2023-04-16T11:22:53;16.20;99.90
57829;DHT22;43657;52.698;6.314;2023-04-16T11:25:20;16.20;99.90
57829;DHT22;43657;52.698;6.314;2023-04-16T11:27:47;16.10;99.90
57829;DHT22;43657;52.698;6.314;2023-04-16T11:30:13;16.20;99.90
57829;DHT22;43657;52.698;6.314;2023-04-16T11:32:39;16.20;99.90
57829;DHT22;43657;52.698;6.314;2023-04-16T11:35:13;16.20;99.90
57829;DHT22;43657;52.698;6.314;2023-04-16T11:37:39;16.30;99.90
57829;DHT22;43657;52.698;6.314;2023-04-16T11:40:05;16.30;99.90
57829;DHT22;43657;52.698;6.314;2023-04-16T11:42:32;16.20;99.90
57829;DHT22;43657;52.698;6.314;2023-04-16T11:44:58;16.00;99.90
57829;DHT22;43657;52.698;6.314;2023-04-16T11:47:29;15.80;99.90
57829;DHT22;43657;52.698;6.314;2023-04-16T11:49:55;15.70;99.90
57829;DHT22;43657;52.698;6.314;2023-04-16T11:52:29;15.70;99.90
57829;DHT22;43657;52.698;6.314;2023-04-16T11:54:56;15.90;99.90
57829;DHT22;43657;52.698;6.314;2023-04-16T11:57:29;16.10;99.90
57829;DHT22;43657;52.698;6.314;2023-04-16T11:59:56;16.40;99.90
57829;DHT22;43657;52.698;6.314;2023-04-16T12:02:37;16.60;99.90
57829;DHT22;43657;52.698;6.314;2023-04-16T12:05:05;16.70;99.90
57829;DHT22;43657;52.698;6.314;2023-04-16T12:07:33;16.60;99.90
57829;DHT22;43657;52.698;6.314;2023-04-16T12:10:07;16.50;99.90
57829;DHT22;43657;52.698;6.314;2023-04-16T12:12:33;16.50;99.90
57829;DHT22;43657;52.698;6.314;2023-04-16T12:15:03;16.50;99.90
57829;DHT22;43657;52.698;6.314;2023-04-16T12:17:31;16.40;99.90
57829;DHT22;43657;52.698;6.314;2023-04-16T12:19:58;16.30;99.90
57829;DHT22;43657;52.698;6.314;2023-04-16T12:22:32;16.30;99.90
57829;DHT22;43657;52.698;6.314;2023-04-16T12:25:05;16.20;99.90
57829;DHT22;43657;52.698;6.314;2023-04-16T12:30:13;16.10;99.90
57829;DHT22;43657;52.698;6.314;2023-04-16T12:32:40;16.00;99.90
57829;DHT22;43657;52.698;6.314;2023-04-16T12:35:07;16.00;99.90
57829;DHT22;43657;52.698;6.314;2023-04-16T12:37:33;16.00;99.90
57829;DHT22;43657;52.698;6.314;2023-04-16T12:39:59;16.30;99.90
57829;DHT22;43657;52.698;6.314;2023-04-16T12:42:25;16.70;99.90
57829;DHT22;43657;52.698;6.314;2023-04-16T12:44:50;16.90;99.90
57829;DHT22;43657;52.698;6.314;2023-04-16T12:47:16;16.90;99.90
57829;DHT22;43657;52.698;6.314;2023-04-16T12:49:41;16.90;99.90
57829;DHT22;43657;52.698;6.314;2023-04-16T12:52:09;16.70;99.90
57829;DHT22;43657;52.698;6.314;2023-04-16T12:54:34;16.50;99.90
57829;DHT22;43657;52.698;6.314;2023-04-16T12:57:00;16.30;99.90
57829;DHT22;43657;52.698;6.314;2023-04-16T12:59:25;16.30;99.90
57829;DHT22;43657;52.698;6.314;2023-04-16T13:01:51;16.50;99.90
57829;DHT22;43657;52.698;6.314;2023-04-16T13:04:16;17.00;99.90
57829;DHT22;43657;52.698;6.314;2023-04-16T13:06:43;18.10;99.90
57829;DHT22;43657;52.698;6.314;2023-04-16T13:09:10;19.30;99.90
57829;DHT22;43657;52.698;6.314;2023-04-16T13:11:36;19.90;99.90
57829;DHT22;43657;52.698;6.314;2023-04-16T13:14:01;19.90;99.90
57829;DHT22;43657;52.698;6.314;2023-04-16T13:16:27;20.20;99.90
57829;DHT22;43657;52.698;6.314;2023-04-16T13:18:52;20.20;97.90
57829;DHT22;43657;52.698;6.314;2023-04-16T13:21:18;20.60;99.90
57829;DHT22;43657;52.698;6.314;2023-04-16T13:23:43;21.10;90.80
57829;DHT22;43657;52.698;6.314;2023-04-16T13:26:09;21.00;90.80
57829;DHT22;43657;52.698;6.314;2023-04-16T13:28:37;20.70;93.60
57829;DHT22;43657;52.698;6.314;2023-04-16T13:31:03;20.50;96.40
57829;DHT22;43657;52.698;6.314;2023-04-16T13:33:28;20.00;93.80
57829;DHT22;43657;52.698;6.314;2023-04-16T13:35:54;19.40;97.60
57829;DHT22;43657;52.698;6.314;2023-04-16T13:38:20;19.60;99.90
57829;DHT22;43657;52.698;6.314;2023-04-16T13:40:45;19.60;95.30
57829;DHT22;43657;52.698;6.314;2023-04-16T13:43:11;19.10;97.60
57829;DHT22;43657;52.698;6.314;2023-04-16T13:45:38;18.40;99.90
57829;DHT22;43657;52.698;6.314;2023-04-16T13:48:04;17.90;99.90
57829;DHT22;43657;52.698;6.314;2023-04-16T13:50:29;18.10;99.90
57829;DHT22;43657;52.698;6.314;2023-04-16T13:52:55;18.60;99.90
57829;DHT22;43657;52.698;6.314;2023-04-16T13:55:21;19.20;99.90
57829;DHT22;43657;52.698;6.314;2023-04-16T13:57:47;19.50;99.90
57829;DHT22;43657;52.698;6.314;2023-04-16T14:00:14;19.80;99.00
57829;DHT22;43657;52.698;6.314;2023-04-16T14:02:43;20.10;99.90
57829;DHT22;43657;52.698;6.314;2023-04-16T14:05:10;20.20;91.80
57829;DHT22;43657;52.698;6.314;2023-04-16T14:07:36;20.30;92.90
57829;DHT22;43657;52.698;6.314;2023-04-16T14:10:02;20.40;87.60
57829;DHT22;43657;52.698;6.314;2023-04-16T14:12:27;20.30;90.60
57829;DHT22;43657;52.698;6.314;2023-04-16T14:14:53;20.30;91.80
57829;DHT22;43657;52.698;6.314;2023-04-16T14:17:19;20.20;92.20
57829;DHT22;43657;52.698;6.314;2023-04-16T14:19:45;20.30;94.30
57829;DHT22;43657;52.698;6.314;2023-04-16T14:22:10;20.20;93.10
57829;DHT22;43657;52.698;6.314;2023-04-16T14:24:36;19.90;93.90
57829;DHT22;43657;52.698;6.314;2023-04-16T14:27:01;19.70;95.90
57829;DHT22;43657;52.698;6.314;2023-04-16T14:29:27;19.70;97.30
57829;DHT22;43657;52.698;6.314;2023-04-16T14:31:52;19.60;96.40
57829;DHT22;43657;52.698;6.314;2023-04-16T14:34:18;19.50;96.30
57829;DHT22;43657;52.698;6.314;2023-04-16T14:36:44;19.20;97.40
57829;DHT22;43657;52.698;6.314;2023-04-16T14:39:09;19.10;99.90
57829;DHT22;43657;52.698;6.314;2023-04-16T14:41:35;18.70;99.90
57829;DHT22;43657;52.698;6.314;2023-04-16T14:44:01;18.50;99.90
57829;DHT22;43657;52.698;6.314;2023-04-16T14:46:28;18.50;99.30
57829;DHT22;43657;52.698;6.314;2023-04-16T14:48:54;18.40;99.90
57829;DHT22;43657;52.698;6.314;2023-04-16T14:51:20;18.40;99.90
57829;DHT22;43657;52.698;6.314;2023-04-16T14:53:46;18.30;99.90
57829;DHT22;43657;52.698;6.314;2023-04-16T14:56:11;18.10;99.90
57829;DHT22;43657;52.698;6.314;2023-04-16T14:58:40;17.90;99.90
57829;DHT22;43657;52.698;6.314;2023-04-16T15:01:07;17.70;99.90
57829;DHT22;43657;52.698;6.314;2023-04-16T15:03:33;17.40;99.90
57829;DHT22;43657;52.698;6.314;2023-04-16T15:05:58;17.20;99.90
57829;DHT22;43657;52.698;6.314;2023-04-16T15:08:24;17.10;99.90
57829;DHT22;43657;52.698;6.314;2023-04-16T15:10:50;17.00;99.90
57829;DHT22;43657;52.698;6.314;2023-04-16T15:13:16;16.90;99.90
57829;DHT22;43657;52.698;6.314;2023-04-16T15:15:42;16.90;99.90
57829;DHT22;43657;52.698;6.314;2023-04-16T15:18:07;16.90;99.90
57829;DHT22;43657;52.698;6.314;2023-04-16T15:20:33;17.00;99.90
57829;DHT22;43657;52.698;6.314;2023-04-16T15:22:58;17.00;99.90
57829;DHT22;43657;52.698;6.314;2023-04-16T15:25:24;16.90;99.90
57829;DHT22;43657;52.698;6.314;2023-04-16T15:27:50;16.90;99.90
57829;DHT22;43657;52.698;6.314;2023-04-16T15:30:16;17.00;99.90
57829;DHT22;43657;52.698;6.314;2023-04-16T15:32:45;17.00;99.90
57829;DHT22;43657;52.698;6.314;2023-04-16T15:35:12;17.00;99.90
57829;DHT22;43657;52.698;6.314;2023-04-16T15:37:38;16.80;99.90
57829;DHT22;43657;52.698;6.314;2023-04-16T15:40:04;16.80;99.90